createdAt,value
2019-02-24T00:00:28.594Z,34.26
2019-02-24T00:01:28.582Z,34.26
2019-02-24T00:02:28.564Z,34.16
2019-02-24T00:03:28.590Z,34.67
2019-02-24T00:04:28.542Z,34.38
2019-02-24T00:05:28.539Z,34.56
2019-02-24T00:06:28.522Z,35.16
2019-02-24T00:07:28.514Z,34.06
2019-02-24T00:08:28.508Z,34.26
2019-02-24T00:09:28.535Z,34.36
2019-02-24T00:10:28.482Z,34.16
2019-02-24T00:11:28.477Z,34.46
2019-02-24T00:12:28.471Z,34.46
2019-02-24T00:13:28.453Z,34.54
2019-02-24T00:14:28.467Z,34.84
2019-02-24T00:15:28.428Z,34.04
2019-02-24T00:16:28.427Z,34.14
2019-02-24T00:17:28.406Z,33.64
2019-02-24T00:18:28.404Z,33.84
2019-02-24T00:19:28.411Z,33.54
2019-02-24T00:20:28.380Z,34.84
2019-02-24T00:21:28.393Z,33.84
2019-02-24T00:22:28.356Z,34.04
2019-02-24T00:23:28.351Z,33.23
2019-02-24T00:24:28.336Z,34.24
2019-02-24T00:25:28.332Z,33.36
2019-02-24T00:26:28.311Z,34.86
2019-02-24T00:27:28.306Z,34.46
2019-02-24T00:28:28.290Z,34.86
2019-02-24T00:29:28.285Z,34.46
2019-02-24T00:30:28.286Z,34.58
2019-02-24T00:31:28.258Z,34.47
2019-02-24T00:32:28.249Z,33.97
2019-02-24T00:33:28.245Z,34.27
2019-02-24T00:34:28.230Z,34.67
2019-02-24T00:35:28.236Z,34.88
2019-02-24T00:36:28.211Z,34.78
2019-02-24T00:37:28.194Z,34.79
2019-02-24T00:38:28.194Z,34.69
2019-02-24T00:39:28.177Z,34.89
2019-02-24T00:40:28.182Z,34.99
2019-02-24T00:41:28.157Z,34.19
2019-02-24T00:42:28.142Z,35.30
2019-02-24T00:43:28.162Z,34.41
2019-02-24T00:44:28.117Z,34.41
2019-02-24T00:45:28.128Z,34.51
2019-02-24T00:46:28.098Z,35.61
2019-02-24T00:47:28.087Z,34.71
2019-02-24T00:48:28.087Z,34.81
2019-02-24T00:49:28.071Z,35.33
2019-02-24T00:50:28.083Z,35.23
2019-02-24T00:51:28.047Z,35.53
2019-02-24T00:52:28.036Z,34.42
2019-02-24T00:53:28.027Z,35.33
2019-02-24T00:54:28.019Z,35.53
2019-02-24T00:55:28.010Z,35.53
2019-02-24T00:56:28.021Z,34.94
2019-02-24T00:57:27.985Z,35.75
2019-02-24T00:58:27.970Z,35.55
2019-02-24T00:59:27.962Z,35.95
2019-02-24T01:00:27.957Z,36.55
2019-02-24T01:01:27.964Z,35.65
2019-02-24T01:02:27.929Z,35.85
2019-02-24T01:03:27.919Z,35.65
2019-02-24T01:04:27.906Z,35.85
2019-02-24T01:05:27.897Z,35.57
2019-02-24T01:06:27.904Z,35.77
2019-02-24T01:07:27.886Z,36.17
2019-02-24T01:08:27.866Z,35.86
2019-02-24T01:09:27.859Z,36.67
2019-02-24T01:10:27.874Z,36.67
2019-02-24T01:11:27.865Z,36.47
2019-02-24T01:12:27.833Z,36.37
2019-02-24T01:13:27.815Z,36.47
2019-02-24T01:14:27.801Z,36.98
2019-02-24T01:15:27.794Z,36.77
2019-02-24T01:16:27.786Z,36.49
2019-02-24T01:17:27.785Z,37.19
2019-02-24T01:18:27.758Z,37.29
2019-02-24T01:19:27.753Z,36.59
2019-02-24T01:20:27.735Z,36.79
2019-02-24T01:21:27.722Z,37.29
2019-02-24T01:22:27.744Z,37.40
2019-02-24T01:23:27.734Z,36.79
2019-02-24T01:24:27.692Z,36.69
2019-02-24T01:25:27.699Z,36.39
2019-02-24T01:26:27.669Z,36.59
2019-02-24T01:27:27.661Z,36.20
2019-02-24T01:28:27.657Z,36.19
2019-02-24T01:29:27.640Z,36.19
2019-02-24T01:30:27.625Z,36.49
2019-02-24T01:31:27.621Z,36.49
2019-02-24T01:32:27.643Z,35.99
2019-02-24T01:33:27.613Z,35.68
2019-02-24T01:34:27.578Z,36.19
2019-02-24T01:35:27.576Z,35.88
2019-02-24T01:36:27.559Z,35.88
2019-02-24T01:37:27.544Z,36.57
2019-02-24T01:38:27.561Z,35.77
2019-02-24T01:39:27.522Z,36.07
2019-02-24T01:40:27.518Z,35.45
2019-02-24T01:41:27.501Z,35.36
2019-02-24T01:42:27.494Z,35.25
2019-02-24T01:43:27.481Z,35.35
2019-02-24T01:44:27.481Z,34.74
2019-02-24T01:45:27.458Z,34.84
2019-02-24T01:46:27.452Z,35.65
2019-02-24T01:47:27.435Z,34.63
2019-02-24T01:48:27.423Z,34.83
2019-02-24T01:49:27.434Z,34.42
2019-02-24T01:50:27.412Z,34.92
2019-02-24T01:51:27.393Z,34.72
2019-02-24T01:52:27.384Z,34.72
2019-02-24T01:53:27.374Z,35.05
2019-02-24T01:54:27.374Z,35.05
2019-02-24T01:55:27.348Z,35.05
2019-02-24T01:56:27.340Z,34.64
2019-02-24T01:57:27.334Z,35.95
2019-02-24T01:58:34.978Z,36.05
2019-02-24T01:59:28.314Z,35.85
2019-02-24T02:00:27.291Z,36.37
2019-02-24T02:01:27.280Z,36.17
2019-02-24T02:02:27.272Z,36.07
2019-02-24T02:03:27.258Z,36.17
2019-02-24T02:04:27.261Z,35.86
2019-02-24T02:05:27.237Z,36.19
2019-02-24T02:06:27.228Z,36.19
2019-02-24T02:07:27.224Z,35.28
2019-02-24T02:08:27.204Z,36.29
2019-02-24T02:09:27.204Z,36.29
2019-02-24T02:10:27.178Z,36.39
2019-02-24T02:11:27.165Z,35.99
2019-02-24T02:12:27.168Z,36.08
2019-02-24T02:13:27.153Z,36.89
2019-02-24T02:14:27.178Z,36.69
2019-02-24T02:15:27.127Z,35.68
2019-02-24T02:16:27.157Z,36.08
2019-02-24T02:17:27.112Z,35.38
2019-02-24T02:18:27.098Z,35.88
2019-02-24T02:19:27.085Z,35.38
2019-02-24T02:20:27.088Z,35.58
2019-02-24T02:21:27.083Z,36.19
2019-02-24T02:22:27.068Z,36.07
2019-02-24T02:23:27.041Z,35.57
2019-02-24T02:24:27.030Z,35.26
2019-02-24T02:25:27.050Z,35.25
2019-02-24T02:26:27.005Z,34.74
2019-02-24T02:27:27.003Z,34.74
2019-02-24T02:28:26.985Z,35.14
2019-02-24T02:29:26.973Z,34.94
2019-02-24T02:30:27.001Z,35.53
2019-02-24T02:31:26.954Z,34.91
2019-02-24T02:32:26.940Z,35.11
2019-02-24T02:33:26.929Z,34.09
2019-02-24T02:34:26.927Z,34.79
2019-02-24T02:35:26.911Z,34.29
2019-02-24T02:36:26.912Z,33.77
2019-02-24T02:37:26.889Z,34.27
2019-02-24T02:38:26.883Z,33.77
2019-02-24T02:39:26.870Z,34.27
2019-02-24T02:40:26.869Z,33.87
2019-02-24T02:41:26.864Z,33.95
2019-02-24T02:42:26.827Z,34.06
2019-02-24T02:43:26.819Z,34.16
2019-02-24T02:44:26.818Z,33.74
2019-02-24T02:45:26.807Z,33.74
2019-02-24T02:46:26.797Z,32.53
2019-02-24T02:47:26.785Z,33.64
2019-02-24T02:48:26.768Z,33.54
2019-02-24T02:49:26.770Z,33.14
2019-02-24T02:50:26.748Z,32.82
2019-02-24T02:51:26.759Z,32.72
2019-02-24T02:52:26.734Z,33.04
2019-02-24T02:53:26.717Z,32.33
2019-02-24T02:54:26.701Z,32.93
2019-02-24T02:55:26.697Z,33.14
2019-02-24T02:56:26.693Z,32.84
2019-02-24T02:57:26.690Z,32.85
2019-02-24T02:58:26.666Z,33.05
2019-02-24T02:59:26.653Z,32.85
2019-02-24T03:00:26.656Z,33.65
2019-02-24T03:01:26.634Z,33.75
2019-02-24T03:02:26.634Z,33.55
2019-02-24T03:03:26.605Z,33.55
2019-02-24T03:04:26.598Z,33.95
2019-02-24T03:05:26.609Z,33.05
2019-02-24T03:06:26.576Z,33.57
2019-02-24T03:07:26.565Z,33.27
2019-02-24T03:08:26.551Z,33.47
2019-02-24T03:09:26.548Z,33.67
2019-02-24T03:10:26.546Z,33.07
2019-02-24T03:11:26.524Z,33.97
2019-02-24T03:12:26.519Z,32.98
2019-02-24T03:13:26.496Z,33.69
2019-02-24T03:14:26.490Z,33.87
2019-02-24T03:15:26.494Z,33.89
2019-02-24T03:16:26.469Z,33.39
2019-02-24T03:17:26.459Z,33.39
2019-02-24T03:18:26.447Z,34.29
2019-02-24T03:19:26.442Z,34.29
2019-02-24T03:20:26.443Z,33.79
2019-02-24T03:21:26.426Z,33.39
2019-02-24T03:22:26.406Z,34.09
2019-02-24T03:23:26.396Z,33.39
2019-02-24T03:24:26.393Z,33.59
2019-02-24T03:25:26.389Z,33.69
2019-02-24T03:26:26.366Z,33.79
2019-02-24T03:27:26.348Z,33.50
2019-02-24T03:28:26.344Z,33.40
2019-02-24T03:29:26.336Z,33.91
2019-02-24T03:30:26.350Z,33.80
2019-02-24T03:31:26.316Z,34.20
2019-02-24T03:32:26.302Z,34.81
2019-02-24T03:33:26.293Z,33.91
2019-02-24T03:34:26.280Z,33.40
2019-02-24T03:35:26.286Z,33.70
2019-02-24T03:36:26.256Z,34.71
2019-02-24T03:37:26.250Z,34.00
2019-02-24T03:38:26.235Z,34.81
2019-02-24T03:39:26.224Z,33.91
2019-02-24T03:40:26.225Z,33.60
2019-02-24T03:41:26.200Z,33.60
2019-02-24T03:42:26.190Z,34.91
2019-02-24T03:43:26.180Z,34.20
2019-02-24T03:44:26.166Z,34.20
2019-02-24T03:45:26.172Z,34.20
2019-02-24T03:46:26.145Z,34.11
2019-02-24T03:47:26.135Z,33.91
2019-02-24T03:48:26.126Z,33.60
2019-02-24T03:49:26.111Z,33.91
2019-02-24T03:50:26.119Z,34.11
2019-02-24T03:51:26.089Z,33.91
2019-02-24T03:52:26.087Z,33.80
2019-02-24T03:53:26.073Z,34.00
2019-02-24T03:54:26.058Z,34.20
2019-02-24T03:55:26.065Z,34.20
2019-02-24T03:56:26.043Z,33.30
2019-02-24T03:57:26.025Z,34.51
2019-02-24T03:58:26.025Z,33.42
2019-02-24T03:59:26.011Z,34.12
2019-02-24T04:00:26.069Z,34.02
2019-02-24T04:01:25.988Z,33.82
2019-02-24T04:02:25.972Z,35.03
2019-02-24T04:03:25.968Z,34.34
2019-02-24T04:04:25.956Z,35.55
2019-02-24T04:05:25.971Z,34.54
2019-02-24T04:06:25.947Z,34.64
2019-02-24T04:07:25.934Z,34.86
2019-02-24T04:08:25.909Z,34.86
2019-02-24T04:09:25.898Z,35.46
2019-02-24T04:10:25.886Z,35.26
2019-02-24T04:11:25.893Z,35.46
2019-02-24T04:12:25.864Z,35.26
2019-02-24T04:13:25.861Z,35.38
2019-02-24T04:14:25.841Z,35.48
2019-02-24T04:15:25.833Z,34.97
2019-02-24T04:16:25.841Z,35.38
2019-02-24T04:17:25.855Z,35.88
2019-02-24T04:18:25.799Z,36.08
2019-02-24T04:19:25.794Z,36.29
2019-02-24T04:20:25.786Z,35.90
2019-02-24T04:21:25.776Z,35.80
2019-02-24T04:22:25.755Z,35.70
2019-02-24T04:23:25.738Z,36.30
2019-02-24T04:24:25.738Z,35.60
2019-02-24T04:25:25.722Z,35.39
2019-02-24T04:26:25.745Z,35.58
2019-02-24T04:27:25.703Z,35.50
2019-02-24T04:28:25.686Z,36.08
2019-02-24T04:29:25.674Z,35.48
2019-02-24T04:30:25.666Z,34.86
2019-02-24T04:31:25.679Z,35.45
2019-02-24T04:32:25.651Z,34.20
2019-02-24T04:33:25.634Z,33.79
2019-02-24T04:34:25.628Z,33.47
2019-02-24T04:35:25.617Z,33.45
2019-02-24T04:36:25.616Z,32.72
2019-02-24T04:37:25.600Z,32.02
2019-02-24T04:38:25.584Z,31.60
2019-02-24T04:39:25.572Z,31.29
2019-02-24T04:40:25.555Z,31.79
2019-02-24T04:41:25.555Z,31.47
2019-02-24T04:42:25.538Z,30.35
2019-02-24T04:43:25.540Z,31.15
2019-02-24T04:44:25.514Z,30.24
2019-02-24T04:45:25.499Z,30.04
2019-02-24T04:46:25.507Z,29.84
2019-02-24T04:47:25.480Z,30.04
2019-02-24T04:48:25.475Z,29.84
2019-02-24T04:49:25.460Z,29.84
2019-02-24T04:50:25.451Z,29.14
2019-02-24T04:51:25.450Z,30.24
2019-02-24T04:52:25.428Z,29.84
2019-02-24T04:53:25.420Z,29.74
2019-02-24T04:54:25.409Z,30.14
2019-02-24T04:55:25.394Z,30.05
2019-02-24T04:56:25.399Z,29.85
2019-02-24T04:57:25.372Z,29.94
2019-02-24T04:58:25.364Z,30.35
2019-02-24T04:59:34.578Z,29.75
2019-02-24T05:00:26.342Z,30.15
2019-02-24T05:01:25.348Z,30.27
2019-02-24T05:02:25.326Z,30.36
2019-02-24T05:03:25.308Z,30.57
2019-02-24T05:04:25.301Z,30.28
2019-02-24T05:05:25.288Z,30.58
2019-02-24T05:06:25.295Z,30.18
2019-02-24T05:07:25.268Z,31.80
2019-02-24T05:08:25.258Z,31.80
2019-02-24T05:09:25.247Z,31.80
2019-02-24T05:10:25.241Z,31.41
2019-02-24T05:11:25.242Z,31.82
2019-02-24T05:12:25.217Z,31.62
2019-02-24T05:13:25.202Z,31.92
2019-02-24T05:14:25.195Z,31.63
2019-02-24T05:15:25.186Z,31.73
2019-02-24T05:16:25.186Z,31.93
2019-02-24T05:17:25.237Z,31.83
2019-02-24T05:18:25.151Z,31.65
2019-02-24T05:19:25.162Z,31.45
2019-02-24T05:20:25.132Z,32.45
2019-02-24T05:21:25.140Z,32.75
2019-02-24T05:22:25.115Z,32.55
2019-02-24T05:23:25.109Z,32.26
2019-02-24T05:24:25.086Z,33.27
2019-02-24T05:25:25.077Z,31.96
2019-02-24T05:26:25.096Z,32.38
2019-02-24T05:27:25.056Z,32.98
2019-02-24T05:28:25.057Z,32.58
2019-02-24T05:29:25.039Z,32.78
2019-02-24T05:30:25.026Z,32.98
2019-02-24T05:31:25.033Z,33.10
2019-02-24T05:32:25.006Z,33.50
2019-02-24T05:33:24.993Z,34.00
2019-02-24T05:34:24.992Z,33.40
2019-02-24T05:35:24.974Z,33.42
2019-02-24T05:36:24.973Z,33.22
2019-02-24T05:37:24.954Z,34.02
2019-02-24T05:38:25.062Z,34.34
2019-02-24T05:39:24.934Z,34.02
2019-02-24T05:40:24.928Z,33.84
2019-02-24T05:41:24.927Z,34.64
2019-02-24T05:42:24.896Z,34.04
2019-02-24T05:43:24.887Z,34.64
2019-02-24T05:44:24.880Z,34.44
2019-02-24T05:45:24.873Z,34.44
2019-02-24T05:46:24.875Z,34.94
2019-02-24T05:47:24.852Z,34.45
2019-02-24T05:48:24.835Z,34.66
2019-02-24T05:49:24.825Z,34.86
2019-02-24T05:50:24.817Z,34.86
2019-02-24T05:51:24.823Z,34.45
2019-02-24T05:52:24.794Z,34.96
2019-02-24T05:53:24.779Z,34.56
2019-02-24T05:54:24.778Z,34.76
2019-02-24T05:55:24.755Z,35.08
2019-02-24T05:56:24.763Z,34.57
2019-02-24T05:57:24.736Z,35.17
2019-02-24T05:58:24.722Z,35.38
2019-02-24T05:59:24.716Z,34.67
2019-02-24T06:00:24.706Z,35.17
2019-02-24T06:01:24.718Z,34.97
2019-02-24T06:02:24.686Z,34.27
2019-02-24T06:03:24.673Z,34.47
2019-02-24T06:04:24.657Z,34.67
2019-02-24T06:05:24.659Z,34.77
2019-02-24T06:06:24.636Z,34.76
2019-02-24T06:07:24.644Z,34.44
2019-02-24T06:08:24.628Z,34.14
2019-02-24T06:09:24.603Z,33.84
2019-02-24T06:10:24.609Z,33.82
2019-02-24T06:11:24.583Z,34.02
2019-02-24T06:12:24.591Z,34.42
2019-02-24T06:13:24.570Z,34.72
2019-02-24T06:14:24.556Z,34.41
2019-02-24T06:15:24.539Z,34.61
2019-02-24T06:16:24.547Z,34.71
2019-02-24T06:17:24.532Z,34.81
2019-02-24T06:18:24.505Z,34.69
2019-02-24T06:19:24.505Z,34.79
2019-02-24T06:20:24.487Z,34.59
2019-02-24T06:21:24.477Z,34.19
2019-02-24T06:22:24.487Z,34.67
2019-02-24T06:23:24.452Z,34.89
2019-02-24T06:24:24.444Z,34.89
2019-02-24T06:25:24.432Z,35.50
2019-02-24T06:26:24.415Z,36.20
2019-02-24T06:27:24.428Z,36.32
2019-02-24T06:28:24.411Z,36.42
2019-02-24T06:29:24.389Z,36.42
2019-02-24T06:30:24.375Z,36.32
2019-02-24T06:31:24.369Z,36.92
2019-02-24T06:32:24.466Z,36.84
2019-02-24T06:33:24.341Z,37.65
2019-02-24T06:34:24.333Z,37.56
2019-02-24T06:35:24.324Z,38.05
2019-02-24T06:36:24.316Z,37.34
2019-02-24T06:37:24.332Z,38.07
2019-02-24T06:38:24.292Z,37.87
2019-02-24T06:39:24.283Z,37.87
2019-02-24T06:40:24.273Z,38.27
2019-02-24T06:41:24.255Z,37.88
2019-02-24T06:42:24.264Z,37.66
2019-02-24T06:43:24.238Z,38.18
2019-02-24T06:44:24.225Z,37.96
2019-02-24T06:45:24.220Z,38.57
2019-02-24T06:46:24.200Z,38.27
2019-02-24T06:47:24.213Z,37.68
2019-02-24T06:48:24.181Z,38.59
2019-02-24T06:49:24.176Z,37.78
2019-02-24T06:50:24.160Z,38.79
2019-02-24T06:51:24.148Z,39.19
2019-02-24T06:52:24.154Z,39.29
2019-02-24T06:53:24.124Z,37.58
2019-02-24T06:54:24.117Z,38.08
2019-02-24T06:55:24.108Z,38.28
2019-02-24T06:56:24.093Z,39.39
2019-02-24T06:57:24.094Z,38.69
2019-02-24T06:58:24.072Z,40.20
2019-02-24T06:59:24.090Z,40.38
2019-02-24T07:00:24.048Z,40.30
2019-02-24T07:01:24.038Z,39.59
2019-02-24T07:02:24.191Z,38.97
2019-02-24T07:03:24.014Z,38.99
2019-02-24T07:04:24.009Z,39.17
2019-02-24T07:05:23.996Z,37.78
2019-02-24T07:06:23.987Z,38.57
2019-02-24T07:07:23.985Z,39.07
2019-02-24T07:08:23.959Z,37.78
2019-02-24T07:09:23.955Z,38.08
2019-02-24T07:10:23.937Z,38.07
2019-02-24T07:11:23.929Z,39.07
2019-02-24T07:12:23.931Z,38.97
2019-02-24T07:13:23.904Z,38.18
2019-02-24T07:14:23.892Z,38.08
2019-02-24T07:15:23.879Z,39.09
2019-02-24T07:16:23.874Z,38.48
2019-02-24T07:17:23.885Z,38.39
2019-02-24T07:18:23.855Z,38.89
2019-02-24T07:19:23.845Z,38.59
2019-02-24T07:20:23.826Z,39.19
2019-02-24T07:21:23.822Z,37.88
2019-02-24T07:22:23.867Z,39.19
2019-02-24T07:23:23.803Z,38.28
2019-02-24T07:24:23.785Z,38.99
2019-02-24T07:25:23.776Z,39.09
2019-02-24T07:26:23.762Z,38.89
2019-02-24T07:27:23.771Z,38.18
2019-02-24T07:28:23.739Z,38.69
2019-02-24T07:29:23.731Z,37.58
2019-02-24T07:30:23.929Z,38.99
2019-02-24T07:31:23.710Z,39.19
2019-02-24T07:32:23.726Z,38.59
2019-02-24T07:33:23.700Z,39.19
2019-02-24T07:34:23.684Z,39.11
2019-02-24T07:35:23.670Z,39.01
2019-02-24T07:36:23.664Z,39.29
2019-02-24T07:37:23.646Z,39.72
2019-02-24T07:38:23.660Z,39.72
2019-02-24T07:39:23.633Z,40.40
2019-02-24T07:40:23.620Z,39.09
2019-02-24T07:41:23.606Z,40.20
2019-02-24T07:42:23.597Z,39.90
2019-02-24T07:43:23.616Z,40.50
2019-02-24T07:44:23.573Z,40.91
2019-02-24T07:45:23.564Z,41.93
2019-02-24T07:46:23.567Z,41.63
2019-02-24T07:47:23.547Z,42.03
2019-02-24T07:48:23.555Z,42.13
2019-02-24T07:49:23.524Z,42.03
2019-02-24T07:50:23.516Z,42.74
2019-02-24T07:51:23.537Z,42.13
2019-02-24T07:52:23.492Z,42.54
2019-02-24T07:53:23.499Z,44.45
2019-02-24T07:54:23.480Z,45.86
2019-02-24T07:55:23.467Z,47.47
2019-02-24T07:56:23.452Z,47.78
2019-02-24T07:57:23.438Z,49.19
2019-02-24T07:58:23.459Z,52.72
2019-02-24T07:59:23.442Z,51.61
2019-02-24T08:00:31.700Z,51.61
2019-02-24T08:01:24.399Z,51.13
2019-02-24T08:02:23.416Z,51.31
2019-02-24T08:03:23.529Z,52.11
2019-02-24T08:04:23.408Z,51.61
2019-02-24T08:05:23.357Z,52.34
2019-02-24T08:06:23.362Z,51.91
2019-02-24T08:07:23.346Z,51.91
2019-02-24T08:08:23.341Z,52.04
2019-02-24T08:09:23.314Z,51.91
2019-02-24T08:10:23.310Z,52.11
2019-02-24T08:11:23.301Z,52.51
2019-02-24T08:12:23.287Z,52.22
2019-02-24T08:13:23.285Z,51.71
2019-02-24T08:14:23.263Z,51.93
2019-02-24T08:15:23.253Z,51.81
2019-02-24T08:16:23.247Z,51.81
2019-02-24T08:17:23.232Z,51.93
2019-02-24T08:18:23.239Z,53.45
2019-02-24T08:19:23.214Z,53.14
2019-02-24T08:20:23.204Z,54.16
2019-02-24T08:21:23.197Z,53.96
2019-02-24T08:22:23.184Z,55.16
2019-02-24T08:23:23.185Z,54.86
2019-02-24T08:24:23.165Z,54.46
2019-02-24T08:25:23.152Z,54.66
2019-02-24T08:26:23.140Z,54.86
2019-02-24T08:27:23.139Z,54.56
2019-02-24T08:28:23.141Z,54.86
2019-02-24T08:29:23.113Z,54.16
2019-02-24T08:30:23.119Z,54.05
2019-02-24T08:31:23.091Z,54.25
2019-02-24T08:32:23.085Z,53.75
2019-02-24T08:33:23.067Z,54.08
2019-02-24T08:34:23.055Z,53.45
2019-02-24T08:35:23.064Z,53.25
2019-02-24T08:36:23.043Z,51.96
2019-02-24T08:37:23.027Z,52.24
2019-02-24T08:38:23.026Z,51.73
2019-02-24T08:39:23.007Z,51.73
2019-02-24T08:40:23.009Z,50.62
2019-02-24T08:41:22.990Z,49.41
2019-02-24T08:42:22.974Z,49.31
2019-02-24T08:43:22.967Z,49.52
2019-02-24T08:44:22.954Z,48.79
2019-02-24T08:45:22.982Z,49.07
2019-02-24T08:46:22.944Z,48.16
2019-02-24T08:47:22.920Z,46.93
2019-02-24T08:48:22.906Z,46.88
2019-02-24T08:49:22.903Z,38.42
2019-02-24T08:50:22.906Z,37.47
2019-02-24T08:51:23.457Z,37.87
2019-02-24T08:52:22.883Z,37.35
2019-02-24T08:53:22.880Z,38.06
2019-02-24T08:54:22.847Z,37.84
2019-02-24T08:55:22.873Z,38.02
2019-02-24T08:56:22.824Z,37.70
2019-02-24T08:57:22.814Z,37.10
2019-02-24T08:58:22.814Z,36.50
2019-02-24T08:59:22.796Z,36.48
2019-02-24T09:00:22.799Z,37.08
2019-02-24T09:01:22.778Z,36.18
2019-02-24T09:02:22.779Z,36.20
2019-02-24T09:03:22.754Z,36.60
2019-02-24T09:04:22.743Z,37.10
2019-02-24T09:05:22.771Z,36.80
2019-02-24T09:06:22.732Z,37.20
2019-02-24T09:07:22.711Z,37.10
2019-02-24T09:08:22.702Z,36.82
2019-02-24T09:09:22.685Z,37.62
2019-02-24T09:10:22.687Z,37.34
2019-02-24T09:11:22.668Z,37.55
2019-02-24T09:12:22.673Z,37.65
2019-02-24T09:13:22.655Z,38.26
2019-02-24T09:14:22.655Z,37.76
2019-02-24T09:15:22.670Z,38.76
2019-02-24T09:16:22.615Z,38.16
2019-02-24T09:17:22.607Z,37.46
2019-02-24T09:18:22.599Z,38.16
2019-02-24T09:19:22.597Z,37.55
2019-02-24T09:20:22.571Z,38.98
2019-02-24T09:21:22.581Z,39.18
2019-02-24T09:22:22.552Z,38.88
2019-02-24T09:23:22.548Z,39.08
2019-02-24T09:24:22.530Z,37.67
2019-02-24T09:25:22.518Z,38.48
2019-02-24T09:26:22.516Z,38.90
2019-02-24T09:27:22.502Z,38.60
2019-02-24T09:28:22.490Z,39.82
2019-02-24T09:29:22.474Z,39.72
2019-02-24T09:30:22.497Z,39.52
2019-02-24T09:31:22.521Z,40.12
2019-02-24T09:32:22.443Z,41.23
2019-02-24T09:33:22.437Z,41.05
2019-02-24T09:34:22.427Z,40.83
2019-02-24T09:35:22.414Z,41.15
2019-02-24T09:36:22.432Z,40.64
2019-02-24T09:37:22.401Z,42.05
2019-02-24T09:38:22.387Z,42.05
2019-02-24T09:39:22.371Z,41.65
2019-02-24T09:40:22.364Z,41.25
2019-02-24T09:41:22.362Z,41.85
2019-02-24T09:42:22.339Z,42.05
2019-02-24T09:43:22.331Z,40.95
2019-02-24T09:44:22.317Z,41.87
2019-02-24T09:45:22.311Z,41.67
2019-02-24T09:46:22.313Z,41.95
2019-02-24T09:47:22.283Z,42.05
2019-02-24T09:48:22.279Z,41.67
2019-02-24T09:49:22.267Z,41.67
2019-02-24T09:50:22.252Z,42.27
2019-02-24T09:51:22.267Z,41.57
2019-02-24T09:52:22.248Z,41.47
2019-02-24T09:53:22.229Z,41.37
2019-02-24T09:54:22.211Z,42.10
2019-02-24T09:55:22.243Z,41.47
2019-02-24T09:56:22.210Z,41.99
2019-02-24T09:57:22.205Z,41.99
2019-02-24T09:58:22.174Z,42.30
2019-02-24T09:59:22.157Z,42.10
2019-02-24T10:00:22.217Z,41.79
2019-02-24T10:01:22.156Z,42.40
2019-02-24T10:02:22.127Z,42.40
2019-02-24T10:03:22.122Z,42.30
2019-02-24T10:04:22.102Z,42.60
2019-02-24T10:05:22.101Z,42.30
2019-02-24T10:06:22.101Z,41.99
2019-02-24T10:07:22.076Z,42.41
2019-02-24T10:08:22.056Z,42.72
2019-02-24T10:09:22.055Z,42.30
2019-02-24T10:10:22.035Z,41.99
2019-02-24T10:11:22.048Z,42.60
2019-02-24T10:12:22.015Z,42.30
2019-02-24T10:13:22.131Z,42.40
2019-02-24T10:14:21.988Z,42.40
2019-02-24T10:15:22.000Z,41.91
2019-02-24T10:16:21.964Z,42.41
2019-02-24T10:17:21.972Z,42.41
2019-02-24T10:18:21.954Z,42.32
2019-02-24T10:19:21.939Z,42.52
2019-02-24T10:20:21.930Z,41.61
2019-02-24T10:21:21.916Z,41.61
2019-02-24T10:22:21.949Z,41.81
2019-02-24T10:23:21.893Z,41.71
2019-02-24T10:24:21.880Z,41.91
2019-02-24T10:25:21.871Z,41.31
2019-02-24T10:26:21.864Z,41.33
2019-02-24T10:27:21.897Z,41.13
2019-02-24T10:28:21.843Z,41.93
2019-02-24T10:29:21.824Z,41.33
2019-02-24T10:30:21.833Z,41.33
2019-02-24T10:31:21.809Z,41.13
2019-02-24T10:32:21.824Z,41.93
2019-02-24T10:33:21.781Z,41.83
2019-02-24T10:34:21.779Z,41.33
2019-02-24T10:35:21.764Z,41.33
2019-02-24T10:36:21.755Z,41.75
2019-02-24T10:37:21.763Z,41.42
2019-02-24T10:38:21.739Z,41.42
2019-02-24T10:39:29.538Z,40.92
2019-02-24T10:40:22.709Z,41.29
2019-02-24T10:41:21.700Z,40.26
2019-02-24T10:42:21.707Z,39.12
2019-02-24T10:43:21.680Z,38.90
2019-02-24T10:44:21.672Z,38.26
2019-02-24T10:45:21.657Z,36.83
2019-02-24T10:46:21.665Z,36.10
2019-02-24T10:47:21.659Z,34.98
2019-02-24T10:48:21.626Z,34.34
2019-02-24T10:49:21.614Z,34.43
2019-02-24T10:50:21.607Z,33.51
2019-02-24T10:51:21.591Z,33.20
2019-02-24T10:52:21.601Z,32.46
2019-02-24T10:53:21.576Z,32.17
2019-02-24T10:54:21.566Z,32.35
2019-02-24T10:55:21.552Z,31.75
2019-02-24T10:56:21.537Z,31.63
2019-02-24T10:57:21.543Z,31.63
2019-02-24T10:58:21.519Z,31.12
2019-02-24T10:59:21.532Z,31.54
2019-02-24T11:00:21.497Z,31.63
2019-02-24T11:01:29.271Z,31.42
2019-02-24T11:02:22.498Z,31.54
2019-02-24T11:03:21.466Z,31.54
2019-02-24T11:04:21.458Z,31.63
2019-02-24T11:05:21.465Z,31.43
2019-02-24T11:06:21.445Z,31.34
2019-02-24T11:07:21.445Z,31.43
2019-02-24T11:08:21.415Z,31.63
2019-02-24T11:09:21.406Z,31.55
2019-02-24T11:10:21.439Z,31.75
2019-02-24T11:11:21.376Z,31.45
2019-02-24T11:12:21.391Z,31.65
2019-02-24T11:13:21.364Z,31.45
2019-02-24T11:14:21.351Z,32.06
2019-02-24T11:15:21.345Z,31.37
2019-02-24T11:16:21.324Z,31.16
2019-02-24T11:17:21.339Z,31.48
2019-02-24T11:18:21.315Z,32.58
2019-02-24T11:19:21.307Z,32.20
2019-02-24T11:20:21.285Z,33.50
2019-02-24T11:21:21.275Z,32.79
2019-02-24T11:22:21.286Z,33.21
2019-02-24T11:23:21.262Z,32.91
2019-02-24T11:24:21.247Z,33.21
2019-02-24T11:25:21.232Z,33.03
2019-02-24T11:26:21.231Z,33.12
2019-02-24T11:27:21.227Z,34.12
2019-02-24T11:28:21.207Z,33.64
2019-02-24T11:29:21.187Z,33.14
2019-02-24T11:30:21.177Z,33.64
2019-02-24T11:31:21.178Z,33.86
2019-02-24T11:32:21.171Z,33.86
2019-02-24T11:33:21.147Z,33.78
2019-02-24T11:34:21.129Z,34.48
2019-02-24T11:35:21.129Z,34.39
2019-02-24T11:36:21.119Z,34.80
2019-02-24T11:37:21.123Z,34.09
2019-02-24T11:38:21.095Z,34.99
2019-02-24T11:39:21.102Z,34.91
2019-02-24T11:40:21.075Z,34.21
2019-02-24T11:41:21.070Z,35.51
2019-02-24T11:42:21.069Z,34.73
2019-02-24T11:43:21.043Z,35.53
2019-02-24T11:44:21.031Z,35.03
2019-02-24T11:45:21.022Z,35.13
2019-02-24T11:46:21.014Z,35.55
2019-02-24T11:47:21.029Z,36.25
2019-02-24T11:48:20.992Z,35.14
2019-02-24T11:49:20.979Z,36.05
2019-02-24T11:50:20.968Z,36.15
2019-02-24T11:51:20.958Z,36.35
2019-02-24T11:52:20.949Z,36.05
2019-02-24T11:53:20.949Z,36.15
2019-02-24T11:54:20.928Z,36.16
2019-02-24T11:55:20.914Z,36.36
2019-02-24T11:56:20.911Z,35.66
2019-02-24T11:57:20.895Z,36.16
2019-02-24T11:58:20.900Z,35.66
2019-02-24T11:59:20.874Z,36.36
2019-02-24T12:00:20.862Z,36.87
2019-02-24T12:01:20.856Z,36.87
2019-02-24T12:02:20.843Z,36.27
2019-02-24T12:03:20.849Z,37.08
2019-02-24T12:04:20.837Z,36.79
2019-02-24T12:05:20.821Z,37.08
2019-02-24T12:06:20.798Z,36.77
2019-02-24T12:07:20.792Z,36.38
2019-02-24T12:08:20.797Z,36.49
2019-02-24T12:09:20.765Z,36.29
2019-02-24T12:10:20.753Z,36.58
2019-02-24T12:11:20.745Z,37.29
2019-02-24T12:12:20.737Z,37.39
2019-02-24T12:13:20.739Z,37.89
2019-02-24T12:14:20.716Z,37.19
2019-02-24T12:15:20.700Z,36.79
2019-02-24T12:16:20.702Z,37.51
2019-02-24T12:17:20.689Z,37.21
2019-02-24T12:18:20.683Z,36.40
2019-02-24T12:19:20.665Z,36.30
2019-02-24T12:20:20.654Z,36.29
2019-02-24T12:21:20.648Z,37.51
2019-02-24T12:22:20.636Z,36.70
2019-02-24T12:23:20.654Z,37.41
2019-02-24T12:24:20.608Z,37.39
2019-02-24T12:25:20.603Z,36.79
2019-02-24T12:26:20.585Z,36.89
2019-02-24T12:27:20.588Z,36.58
2019-02-24T12:28:20.583Z,35.48
2019-02-24T12:29:20.565Z,35.78
2019-02-24T12:30:20.547Z,35.78
2019-02-24T12:31:20.535Z,34.76
2019-02-24T12:32:20.520Z,34.66
2019-02-24T12:33:20.530Z,34.64
2019-02-24T12:34:20.502Z,34.54
2019-02-24T12:35:20.492Z,34.14
2019-02-24T12:36:20.483Z,35.23
2019-02-24T12:37:20.471Z,34.83
2019-02-24T12:38:20.487Z,34.73
2019-02-24T12:39:20.481Z,34.73
2019-02-24T12:40:20.438Z,34.22
2019-02-24T12:41:20.430Z,34.42
2019-02-24T12:42:20.420Z,34.22
2019-02-24T12:43:20.423Z,34.74
2019-02-24T12:44:20.399Z,34.54
2019-02-24T12:45:20.388Z,33.94
2019-02-24T12:46:20.376Z,35.25
2019-02-24T12:47:20.375Z,34.54
2019-02-24T12:48:20.384Z,34.86
2019-02-24T12:49:20.348Z,35.46
2019-02-24T12:50:20.338Z,35.46
2019-02-24T12:51:20.352Z,34.86
2019-02-24T12:52:20.773Z,35.57